»·PEaware :: N912NB KSLC-KEGE

N912NB :: KSLC-KEGE

FLIGHT INFORMATION

Flight Status: Arrived
Operator: Privately registered:
United States
More flights under this callsign
Pilot: Patricio R. (14780)
Aircraft: BOEING 737-200
(B732)
More flights by this aircraft type
Origin: KSLC Salt Lake City Intl
United States
Destination: KEGE Eagle Co Regl
United States
More flights between these airports :: More routes between these airports
Route: SLC4 MTU V200 RLG
File this flight plan on PilotEdge
Remarks:
Altitude:
(Current/Filed)
31,000ft
Speed:
(Current/Filed)
444kts
Departed: 16-Aug-18 03:21 PM
Arrived: 16-Aug-18 04:14 PM
Distance/Time
Traveled:
242nm/0:53
Distance/Time
To Go:
Arrived

Flight Plot

Page will automatically refresh every two minutes.

Flight plan parsing failed; only flown route is shown


Map Options




Map Legend


Flown Route
Filed Route
Departure Airport
Arrival Airport
Navaid (VOR, NDB)
Fix

Horizontal Profiles

Position Reports

Time Latitude Longitude Heading Altitude Ground
Speed
16-Aug-18 15:09 40.774951 -111.959655 357 4236ft 0kts
16-Aug-18 15:10 40.774951 -111.959655 357 4236ft 0kts
16-Aug-18 15:11 40.774951 -111.959655 357 4236ft 0kts
16-Aug-18 15:12 40.774951 -111.959655 357 4236ft 0kts
16-Aug-18 15:13 40.774951 -111.959655 357 4236ft 0kts
16-Aug-18 15:14 40.774951 -111.959655 357 4236ft 0kts
16-Aug-18 15:15 40.774951 -111.959655 357 4236ft 0kts
16-Aug-18 15:16 40.774951 -111.959655 357 4236ft 0kts
16-Aug-18 15:17 40.774951 -111.959655 357 4236ft 0kts
16-Aug-18 15:18 40.774951 -111.959655 357 4236ft 0kts
16-Aug-18 15:19 40.774951 -111.959655 357 4236ft 0kts
16-Aug-18 15:20 40.775060 -111.960163 241 4236ft 10kts
16-Aug-18 15:21 40.772830 -111.960834 225 4236ft 1kts
16-Aug-18 15:22 40.785969 -111.962076 359 4237ft 150kts
16-Aug-18 15:23 40.843742 -111.969145 351 6026ft 248kts
16-Aug-18 15:24 40.914118 -111.985235 351 8937ft 266kts
16-Aug-18 15:25 40.988744 -111.993546 24 11573ft 281kts
16-Aug-18 15:26 41.015018 -111.899998 95 13525ft 305kts
16-Aug-18 15:27 40.985970 -111.796112 124 15757ft 314kts
16-Aug-18 15:28 40.938013 -111.696556 124 17720ft 329kts
16-Aug-18 15:29 40.887509 -111.593731 125 19598ft 339kts
16-Aug-18 15:30 40.835731 -111.488561 125 21293ft 347kts
16-Aug-18 15:31 40.782335 -111.380628 125 22827ft 355kts
16-Aug-18 15:32 40.727870 -111.270999 126 24224ft 361kts
16-Aug-18 15:33 40.671977 -111.158658 126 25354ft 371kts
16-Aug-18 15:34 40.614900 -111.044240 126 26417ft 379kts
16-Aug-18 15:35 40.556342 -110.927297 126 27384ft 386kts
16-Aug-18 15:36 40.496819 -110.808993 125 28260ft 393kts
16-Aug-18 15:37 40.435907 -110.688460 125 29048ft 399kts
16-Aug-18 15:38 40.374885 -110.568150 125 30305ft 389kts
16-Aug-18 15:39 40.314770 -110.450088 125 31077ft 393kts
16-Aug-18 15:40 40.252996 -110.329138 126 31239ft 407kts
16-Aug-18 15:41 40.189809 -110.205244 124 31236ft 414kts
16-Aug-18 15:42 40.144320 -110.066845 101 31241ft 425kts
16-Aug-18 15:43 40.132264 -109.911731 93 31239ft 431kts
16-Aug-18 15:44 40.127276 -109.754915 92 31240ft 436kts
16-Aug-18 15:45 40.123200 -109.596194 92 31231ft 440kts
16-Aug-18 15:46 40.119708 -109.469853 91 31232ft 443kts
16-Aug-18 15:47 40.115281 -109.309505 93 31227ft 445kts
16-Aug-18 15:48 40.110332 -109.147662 92 31219ft 447kts
16-Aug-18 15:49 40.105508 -108.985312 92 31219ft 449kts
16-Aug-18 15:50 40.100452 -108.822192 92 31220ft 451kts
16-Aug-18 15:51 40.095061 -108.658870 92 31221ft 452kts
16-Aug-18 15:52 40.089442 -108.495123 92 31222ft 453kts
16-Aug-18 15:53 40.083684 -108.333537 93 31222ft 454kts
16-Aug-18 15:54 40.077335 -108.170702 93 31337ft 452kts
16-Aug-18 15:55 40.071087 -108.006875 93 31338ft 453kts
16-Aug-18 15:56 40.064522 -107.842396 93 31339ft 454kts
16-Aug-18 15:57 40.041679 -107.681258 102 31340ft 454kts
16-Aug-18 15:58 40.050216 -107.519221 87 31344ft 454kts
16-Aug-18 15:59 40.048016 -107.354310 92 31351ft 452kts
16-Aug-18 16:00 40.041126 -107.202509 94 30156ft 417kts
16-Aug-18 16:01 40.034149 -107.054850 94 28255ft 402kts
16-Aug-18 16:02 40.028251 -106.932700 94 26655ft 390kts
16-Aug-18 16:03 40.021327 -106.794424 94 24789ft 378kts
16-Aug-18 16:04 40.014389 -106.659473 94 22889ft 369kts
16-Aug-18 16:05 40.007254 -106.528211 99 21141ft 357kts
16-Aug-18 16:06 39.940122 -106.457490 188 19349ft 329kts
16-Aug-18 16:07 39.859077 -106.498150 201 17607ft 320kts
16-Aug-18 16:08 39.775582 -106.536865 199 15358ft 317kts
16-Aug-18 16:09 39.695327 -106.573422 206 12900ft 297kts
16-Aug-18 16:10 39.674363 -106.657744 272 11376ft 245kts
16-Aug-18 16:11 39.667786 -106.740342 260 9759ft 218kts
16-Aug-18 16:12 39.657684 -106.809675 261 8404ft 174kts
16-Aug-18 16:13 39.647921 -106.867067 267 7116ft 154kts
16-Aug-18 16:14 39.642436 -106.918909 268 6554ft 130kts
16-Aug-18 16:15 39.639984 -106.930593 82 6554ft 0kts
16-Aug-18 16:16 39.640411 -106.926835 80 6554ft 15kts
16-Aug-18 16:17 39.641061 -106.921048 81 6554ft 15kts
16-Aug-18 16:18 39.641643 -106.915738 81 6554ft 17kts
16-Aug-18 16:19 39.642116 -106.909360 148 6554ft 12kts
16-Aug-18 16:20 39.641618 -106.908449 80 6554ft 0kts

Navigation Log

Ident Type
Flight plan parsing failed, navigation log unavailable